Time;durP1;ratioP1;P1;durP2;ratioP2;P2;SDS_P1;SDS_P2;PMS_P1;PMS_P2;Temp;Humidity;BMP_temperature;BMP_pressure;BME280_temperature;BME280_humidity;BME280_pressure;Samples;Min_cycle;Max_cycle;Signal;HPM_P1;HPM_P2
2023/05/04 00:02:26;;;;;;;11.10;7.70;;;;;;;2.94;69.52;101548.42;105604;277;39705;-72
2023/05/04 00:05:10;;;;;;;11.00;7.60;;;;;;;2.92;69.70;101547.36;105627;277;38266;-71
2023/05/04 00:07:46;;;;;;;9.80;7.40;;;;;;;2.88;69.89;101544.56;105658;277;38237;-71
2023/05/04 00:10:20;;;;;;;11.00;7.70;;;;;;;2.86;70.02;101546.08;106022;277;38338;-71
2023/05/04 00:12:57;;;;;;;9.90;7.60;;;;;;;2.84;70.23;101545.02;105592;277;38360;-71
2023/05/04 00:15:32;;;;;;;11.30;7.40;;;;;;;2.79;70.45;101542.91;105656;277;38510;-72
2023/05/04 00:18:09;;;;;;;11.30;7.40;;;;;;;2.77;70.45;101544.25;105642;277;38523;-72
2023/05/04 00:20:44;;;;;;;11.20;7.50;;;;;;;2.78;70.59;101547.02;105628;277;39491;-71
2023/05/04 00:23:20;;;;;;;9.10;7.30;;;;;;;2.78;70.58;101549.25;106050;277;40092;-71
2023/05/04 00:25:59;;;;;;;12.20;8.20;;;;;;;2.74;70.49;101551.45;106037;277;38802;-71
2023/05/04 00:28:36;;;;;;;14.00;9.50;;;;;;;2.70;70.52;101554.15;105635;277;39019;-71
2023/05/04 00:31:13;;;;;;;16.10;10.50;;;;;;;2.66;70.68;101555.29;105611;277;39347;-72
2023/05/04 00:33:50;;;;;;;18.40;11.80;;;;;;;2.58;70.77;101556.91;105649;277;39277;-72
2023/05/04 00:36:30;;;;;;;19.60;13.20;;;;;;;2.53;70.82;101557.88;105629;277;39550;-71
2023/05/04 00:39:06;;;;;;;17.60;12.40;;;;;;;2.52;70.83;101563.38;105642;277;38455;-72
2023/05/04 00:41:42;;;;;;;16.60;11.50;;;;;;;2.49;70.84;101556.95;105643;277;38534;-73
2023/05/04 00:44:22;;;;;;;16.70;12.30;;;;;;;2.46;71.08;101559.68;105641;276;38967;-73
2023/05/04 00:47:00;;;;;;;16.50;10.20;;;;;;;2.47;71.27;101560.55;105646;276;38230;-71
2023/05/04 00:49:38;;;;;;;13.40;9.00;;;;;;;2.45;71.36;101561.05;105642;276;38950;-71
2023/05/04 00:52:22;;;;;;;13.90;9.20;;;;;;;2.39;71.68;101555.80;105640;276;40401;-72
2023/05/04 00:54:57;;;;;;;16.20;8.90;;;;;;;2.38;71.73;101558.02;105384;277;38378;-72
2023/05/04 00:57:33;;;;;;;12.00;9.00;;;;;;;2.37;71.55;101557.83;105396;276;38725;-72
2023/05/04 01:00:15;;;;;;;10.90;8.60;;;;;;;2.35;71.76;101556.77;106095;276;38824;-72
2023/05/04 01:02:51;;;;;;;11.10;8.40;;;;;;;2.34;71.80;101557.45;106111;276;38410;-72
2023/05/04 01:05:25;;;;;;;13.50;8.60;;;;;;;2.35;71.73;101555.56;105650;276;38597;-71
2023/05/04 01:08:08;;;;;;;11.50;8.50;;;;;;;2.34;71.83;101554.33;105650;277;38349;-71
2023/05/04 01:10:47;;;;;;;12.30;8.60;;;;;;;2.29;71.91;101555.66;105978;277;172393;-70
2023/05/04 01:13:29;;;;;;;12.40;8.70;;;;;;;2.25;71.85;101552.66;105631;276;38507;-70
2023/05/04 01:16:06;;;;;;;14.00;9.10;;;;;;;2.23;71.94;101555.39;105357;276;39420;-71
2023/05/04 01:18:41;;;;;;;12.70;8.80;;;;;;;2.23;71.82;101555.73;106119;276;38969;-71
2023/05/04 01:21:15;;;;;;;11.90;8.90;;;;;;;2.21;72.02;101554.65;105678;276;38498;-72
2023/05/04 01:23:53;;;;;;;12.20;9.60;;;;;;;2.17;71.95;101553.91;106114;276;38775;-72
2023/05/04 01:26:37;;;;;;;12.80;8.60;;;;;;;2.14;72.04;101550.41;106112;276;38682;-72
2023/05/04 01:29:16;;;;;;;14.00;9.20;;;;;;;2.09;72.23;101548.80;105658;276;38661;-72
2023/05/04 01:31:54;;;;;;;16.50;11.70;;;;;;;2.08;72.27;101552.05;105661;276;39376;-72
2023/05/04 01:34:29;;;;;;;13.10;9.40;;;;;;;2.09;72.38;101549.48;105637;277;39856;-72
2023/05/04 01:37:03;;;;;;;14.00;10.10;;;;;;;2.13;72.59;101550.41;105006;277;762890;-72
2023/05/04 01:39:41;;;;;;;12.50;9.70;;;;;;;2.16;72.56;101552.34;105425;277;174895;-71
2023/05/04 01:42:26;;;;;;;13.60;10.20;;;;;;;2.14;72.47;101550.77;105464;277;172439;-71
2023/05/04 01:45:03;;;;;;;13.60;9.70;;;;;;;2.14;72.55;101548.19;106035;277;39509;-72
2023/05/04 01:47:38;;;;;;;15.00;10.50;;;;;;;2.10;72.56;101542.27;106012;277;38273;-73
2023/05/04 01:50:13;;;;;;;14.30;9.70;;;;;;;2.04;72.67;101541.83;105565;277;38509;-71
2023/05/04 01:52:50;;;;;;;14.80;9.90;;;;;;;1.98;72.59;101541.58;105595;277;38609;-71
2023/05/04 01:55:28;;;;;;;15.20;9.90;;;;;;;1.95;72.72;101542.22;105596;277;38531;-70
2023/05/04 01:58:04;;;;;;;13.90;10.40;;;;;;;1.93;72.80;101543.55;105996;277;39135;-70
2023/05/04 02:00:41;;;;;;;14.40;10.60;;;;;;;1.91;72.79;101542.66;105007;277;914206;-72
2023/05/04 02:03:21;;;;;;;14.80;10.70;;;;;;;1.86;72.80;101542.58;105977;277;39482;-72
2023/05/04 02:06:01;;;;;;;14.20;10.40;;;;;;;1.81;72.90;101540.77;105374;277;38314;-71
2023/05/04 02:08:43;;;;;;;14.40;10.10;;;;;;;1.75;72.97;101545.32;105598;265;38746;-72
2023/05/04 02:11:18;;;;;;;14.10;10.00;;;;;;;1.72;73.07;101549.75;105577;277;39216;-72
2023/05/04 02:13:58;;;;;;;15.00;10.00;;;;;;;1.71;73.13;101545.59;105573;277;39797;-72
2023/05/04 02:16:36;;;;;;;15.90;10.30;;;;;;;1.68;73.21;101543.81;105563;277;38491;-71
2023/05/04 02:19:22;;;;;;;14.40;10.10;;;;;;;1.66;73.43;101543.80;105611;277;39396;-71
2023/05/04 02:21:58;;;;;;;19.70;10.40;;;;;;;1.62;73.42;101544.58;105589;277;39045;-72
2023/05/04 02:24:34;;;;;;;16.80;11.30;;;;;;;1.60;73.60;101545.56;105604;277;39122;-71
2023/05/04 02:27:18;;;;;;;17.10;11.40;;;;;;;1.57;73.65;101542.09;105623;277;38473;-72
2023/05/04 02:29:53;;;;;;;14.90;10.60;;;;;;;1.54;73.69;101546.67;105369;279;40083;-72
2023/05/04 02:32:29;;;;;;;15.10;10.80;;;;;;;1.52;73.73;101544.41;105333;277;38569;-72
2023/05/04 02:35:08;;;;;;;16.50;11.40;;;;;;;1.50;73.88;101545.23;105582;277;38691;-72
2023/05/04 02:37:45;;;;;;;15.40;10.20;;;;;;;1.48;74.01;101545.38;105591;277;38371;-72
2023/05/04 02:40:23;;;;;;;13.40;10.10;;;;;;;1.45;74.19;101545.14;105963;277;38261;-72
2023/05/04 02:43:01;;;;;;;13.80;9.50;;;;;;;1.42;74.18;101544.05;105615;277;39647;-72
2023/05/04 02:45:41;;;;;;;14.30;9.90;;;;;;;1.39;74.31;101544.86;105626;277;38539;-72
2023/05/04 02:48:19;;;;;;;14.90;9.60;;;;;;;1.38;74.50;101542.61;105663;277;39020;-72
2023/05/04 02:50:55;;;;;;;14.90;9.70;;;;;;;1.40;74.64;101537.30;105961;277;38250;-72
2023/05/04 02:53:36;;;;;;;12.90;9.70;;;;;;;1.40;74.64;101538.34;105972;277;39447;-72
2023/05/04 02:56:10;;;;;;;12.80;9.40;;;;;;;1.40;74.73;101538.70;105626;277;39988;-73
2023/05/04 02:58:51;;;;;;;15.50;11.60;;;;;;;1.40;74.93;101537.82;105628;277;38761;-73
2023/05/04 03:01:30;;;;;;;14.20;10.10;;;;;;;1.39;75.15;101536.27;105603;277;40791;-71
2023/05/04 03:04:10;;;;;;;15.10;9.40;;;;;;;1.40;75.33;101538.15;105969;277;38952;-71
2023/05/04 03:06:47;;;;;;;12.20;9.80;;;;;;;1.40;75.26;101540.41;105376;277;38561;-73
2023/05/04 03:09:22;;;;;;;13.00;9.70;;;;;;;1.42;75.35;101543.37;105579;277;39867;-73
2023/05/04 03:12:01;;;;;;;12.90;9.60;;;;;;;1.44;75.31;101544.60;105978;277;39576;-72
2023/05/04 03:14:39;;;;;;;12.90;9.70;;;;;;;1.44;75.39;101544.95;105608;277;39399;-72
2023/05/04 03:17:16;;;;;;;15.90;10.40;;;;;;;1.44;75.55;101545.48;105599;277;39457;-72
2023/05/04 03:19:51;;;;;;;13.20;9.30;;;;;;;1.43;75.68;101542.34;105995;277;39956;-72
2023/05/04 03:22:27;;;;;;;13.90;8.90;;;;;;;1.44;75.69;101543.58;105672;277;39573;-72
2023/05/04 03:25:06;;;;;;;13.20;9.30;;;;;;;1.47;75.66;101542.09;105977;277;38234;-71
2023/05/04 03:27:43;;;;;;;12.60;9.20;;;;;;;1.52;75.82;101542.50;105638;277;39450;-71
2023/05/04 03:30:18;;;;;;;14.20;9.80;;;;;;;1.55;75.94;101540.85;105652;277;38486;-72
2023/05/04 03:33:00;;;;;;;15.10;9.60;;;;;;;1.59;76.07;101541.43;105284;277;39003;-72
2023/05/04 03:35:40;;;;;;;14.60;9.30;;;;;;;1.61;76.11;101540.77;105637;277;38607;-71
2023/05/04 03:38:15;;;;;;;11.70;8.80;;;;;;;1.65;76.14;101542.39;105828;277;39127;-71
2023/05/04 03:40:51;;;;;;;13.40;9.40;;;;;;;1.70;76.34;101543.69;105686;277;38273;-72
2023/05/04 03:43:30;;;;;;;14.30;10.30;;;;;;;1.76;76.20;101545.50;105673;277;38950;-73
2023/05/04 03:46:08;;;;;;;19.60;13.70;;;;;;;1.84;76.27;101545.98;105351;277;39429;-72
2023/05/04 03:48:43;;;;;;;24.30;14.30;;;;;;;2.13;76.92;101545.92;105319;277;37430;-72
2023/05/04 03:51:20;;;;;;;24.20;15.10;;;;;;;2.86;77.77;101545.23;105690;277;38523;-72
2023/05/04 03:53:56;;;;;;;18.80;13.40;;;;;;;3.70;77.47;101542.65;105650;277;39372;-72
2023/05/04 03:56:32;;;;;;;18.20;11.80;;;;;;;4.10;75.41;101542.65;105644;277;38291;-73
2023/05/04 03:59:14;;;;;;;17.90;12.10;;;;;;;4.68;75.58;101539.02;105613;277;38544;-74
2023/05/04 04:01:49;;;;;;;14.80;10.20;;;;;;;5.60;76.14;101541.73;105650;277;38265;-72
2023/05/04 04:04:27;;;;;;;18.80;11.40;;;;;;;6.58;74.51;101539.42;105297;278;40884;-72
2023/05/04 04:07:03;;;;;;;15.90;10.30;;;;;;;7.45;71.54;101538.50;105639;277;39401;-73
2023/05/04 04:09:40;;;;;;;13.80;10.40;;;;;;;7.97;68.11;101542.98;105516;277;174620;-72
2023/05/04 04:12:17;;;;;;;19.50;11.70;;;;;;;7.79;65.40;101544.68;105998;277;38464;-72
2023/05/04 04:14:53;;;;;;;16.50;10.70;;;;;;;7.42;64.34;101545.98;105617;277;39408;-71
2023/05/04 04:17:28;;;;;;;17.50;11.00;;;;;;;7.06;63.89;101549.30;106046;277;38861;-71
2023/05/04 04:20:03;;;;;;;17.90;11.60;;;;;;;6.80;64.14;101549.59;105623;277;38466;-73
2023/05/04 04:22:41;;;;;;;15.80;10.80;;;;;;;6.66;64.44;101552.41;105622;277;38891;-73
2023/05/04 04:25:19;;;;;;;17.70;11.60;;;;;;;6.53;64.57;101553.48;105629;277;39032;-72
2023/05/04 04:27:54;;;;;;;18.50;11.00;;;;;;;6.40;64.60;101556.11;105659;277;38506;-72
2023/05/04 04:30:30;;;;;;;19.70;12.10;;;;;;;6.28;64.91;101558.73;105658;277;38354;-73
2023/05/04 04:33:06;;;;;;;16.60;10.90;;;;;;;6.19;65.60;101561.70;105620;277;38222;-73
2023/05/04 04:35:41;;;;;;;16.40;11.80;;;;;;;6.15;65.88;101562.73;105624;277;38789;-73
2023/05/04 04:38:25;;;;;;;17.20;11.40;;;;;;;6.20;66.35;101564.46;105629;277;39648;-73
2023/05/04 04:41:01;;;;;;;15.90;11.30;;;;;;;6.32;66.98;101563.41;105688;277;38243;-72
2023/05/04 04:43:39;;;;;;;16.00;11.90;;;;;;;6.95;67.46;101558.02;105635;277;38265;-72
2023/05/04 04:46:14;;;;;;;19.70;11.50;;;;;;;8.30;68.54;101548.74;105611;277;39463;-73
2023/05/04 04:48:53;;;;;;;18.30;10.90;;;;;;;9.83;67.28;101542.78;105602;277;38470;-74
2023/05/04 04:51:28;;;;;;;16.90;11.80;;;;;;;11.28;64.12;101540.39;106050;277;38237;-72
2023/05/04 04:54:03;;;;;;;16.40;10.90;;;;;;;12.63;59.84;101535.99;105631;277;38220;-72
2023/05/04 04:56:40;;;;;;;16.10;11.20;;;;;;;13.75;56.87;101534.89;105657;277;38345;-74
2023/05/04 04:59:19;;;;;;;16.40;11.00;;;;;;;14.68;52.83;101532.95;105613;277;38752;-74
2023/05/04 05:01:54;;;;;;;17.30;11.40;;;;;;;15.48;50.56;101531.32;105637;277;38732;-74
2023/05/04 05:04:33;;;;;;;22.70;14.10;;;;;;;16.20;48.81;101528.16;105273;279;174097;-74
2023/05/04 05:07:10;;;;;;;31.30;17.70;;;;;;;16.93;45.47;101526.02;105657;277;38368;-73
2023/05/04 05:09:44;;;;;;;26.90;16.90;;;;;;;17.69;43.33;101531.24;105922;277;173935;-73
2023/05/04 05:12:24;;;;;;;20.90;15.80;;;;;;;18.46;41.14;101525.55;105640;277;39280;-73
2023/05/04 05:15:03;;;;;;;24.70;16.50;;;;;;;19.31;40.13;101525.90;105622;277;39488;-71
2023/05/04 05:17:36;;;;;;;;;;;;;;;19.46;37.43;101530.38;105002;277;893406;-71
2023/05/04 05:20:14;;;;;;;23.70;17.50;;;;;;;18.99;36.45;101531.56;105537;277;173964;-72
2023/05/04 05:22:50;;;;;;;24.70;17.20;;;;;;;18.38;37.03;101533.41;105618;277;38223;-75
2023/05/04 05:25:25;;;;;;;23.80;16.80;;;;;;;18.19;37.74;101535.65;105579;277;38846;-73
2023/05/04 05:28:02;;;;;;;24.50;17.50;;;;;;;18.17;37.63;101536.80;105640;277;39415;-73
2023/05/04 05:30:39;;;;;;;27.20;18.10;;;;;;;18.62;37.87;101538.14;106054;277;38518;-73
2023/05/04 05:33:13;;;;;;;22.40;16.30;;;;;;;19.64;36.94;101537.13;105490;277;173818;-73
2023/05/04 05:35:51;;;;;;;23.60;17.60;;;;;;;20.51;35.29;101532.05;105624;277;38645;-71
2023/05/04 05:38:26;;;;;;;21.90;15.40;;;;;;;21.18;33.01;101528.86;105518;277;173864;-71
2023/05/04 05:41:01;;;;;;;20.60;15.50;;;;;;;21.80;31.84;101528.59;105622;277;38288;-73
2023/05/04 05:43:35;;;;;;;24.00;15.50;;;;;;;22.53;30.41;101526.83;105585;278;39031;-73
2023/05/04 05:46:14;;;;;;;20.60;16.10;;;;;;;23.17;30.03;101526.54;105579;277;39667;-72
2023/05/04 05:48:51;;;;;;;19.30;14.50;;;;;;;23.84;29.03;101526.41;106028;277;38481;-74
2023/05/04 05:51:25;;;;;;;17.10;13.30;;;;;;;24.54;27.45;101522.50;105611;277;38834;-71
2023/05/04 05:54:02;;;;;;;16.90;13.90;;;;;;;24.99;26.14;101521.93;105621;277;38538;-71
2023/05/04 05:56:38;;;;;;;19.40;14.40;;;;;;;25.19;26.13;101518.71;105613;277;38804;-73
2023/05/04 05:59:20;;;;;;;17.50;13.30;;;;;;;25.41;25.06;101521.05;105602;277;38953;-73
2023/05/04 06:02:00;;;;;;;14.60;12.30;;;;;;;25.69;24.52;101521.35;104949;277;890221;-73
2023/05/04 06:04:34;;;;;;;15.80;12.60;;;;;;;26.07;23.11;101517.68;105565;277;38454;-73
2023/05/04 06:07:12;;;;;;;13.00;11.50;;;;;;;26.17;22.85;101515.75;105573;277;39415;-73
2023/05/04 06:09:46;;;;;;;13.10;11.30;;;;;;;26.40;22.84;101509.30;105585;265;39847;-73
2023/05/04 06:12:25;;;;;;;13.10;10.80;;;;;;;26.89;22.26;101505.72;105601;277;38228;-72
2023/05/04 06:15:01;;;;;;;11.40;10.30;;;;;;;27.26;21.70;101504.22;105601;277;38817;-75
2023/05/04 06:17:36;;;;;;;11.20;10.10;;;;;;;27.47;21.28;101505.89;105606;277;38513;-75
2023/05/04 06:20:13;;;;;;;9.50;8.60;;;;;;;27.67;20.17;101507.95;105602;277;38874;-75
2023/05/04 06:22:48;;;;;;;11.10;9.70;;;;;;;27.85;19.61;101503.60;105573;277;38316;-76
2023/05/04 06:25:26;;;;;;;;;;;;;;;28.16;19.54;101505.39;105477;277;173432;-75
2023/05/04 06:28:02;;;;;;;8.20;7.40;;;;;;;28.25;19.19;101503.48;106034;277;39429;-75
2023/05/04 06:30:36;;;;;;;9.50;8.40;;;;;;;28.33;18.80;101504.09;105567;277;38373;-74
2023/05/04 06:33:17;;;;;;;10.90;8.10;;;;;;;28.67;18.35;101507.49;105584;277;38266;-74
2023/05/04 06:35:53;;;;;;;11.20;8.60;;;;;;;28.98;18.35;101506.99;105595;277;39111;-74
2023/05/04 06:38:28;;;;;;;10.90;9.40;;;;;;;29.17;18.08;101507.14;105969;277;40004;-74
2023/05/04 06:41:06;;;;;;;11.80;10.40;;;;;;;29.22;18.14;101509.13;105605;277;38217;-75
2023/05/04 06:43:42;;;;;;;11.20;9.90;;;;;;;29.44;18.13;101507.84;105611;277;38329;-75
2023/05/04 06:46:17;;;;;;;14.00;9.30;;;;;;;29.70;17.86;101511.34;105539;277;38589;-74
2023/05/04 06:48:53;;;;;;;10.70;9.60;;;;;;;29.79;17.69;101510.50;105584;277;38595;-73
2023/05/04 06:51:27;;;;;;;14.60;9.60;;;;;;;29.72;17.75;101509.14;105613;277;38825;-74
2023/05/04 06:54:05;;;;;;;9.80;8.80;;;;;;;29.73;17.61;101506.72;105624;275;38534;-74
2023/05/04 06:56:39;;;;;;;9.40;8.50;;;;;;;29.62;16.76;101505.91;105346;279;39788;-74
2023/05/04 06:59:15;;;;;;;10.80;8.30;;;;;;;29.43;17.12;101507.08;105614;277;39985;-73
2023/05/04 07:01:50;;;;;;;11.50;7.60;;;;;;;29.33;16.94;101506.57;105980;277;39909;-73
2023/05/04 07:04:27;;;;;;;8.80;7.90;;;;;;;29.12;17.19;101503.48;105568;277;38534;-73
2023/05/04 07:07:01;;;;;;;10.70;7.90;;;;;;;28.91;17.28;101503.42;105606;277;38230;-73
2023/05/04 07:09:36;;;;;;;8.50;7.40;;;;;;;28.53;17.40;101509.02;106003;277;38808;-74
2023/05/04 07:12:11;;;;;;;9.00;7.70;;;;;;;28.35;17.46;101508.06;105465;277;173241;-74
2023/05/04 07:14:46;;;;;;;7.40;6.40;;;;;;;28.25;17.72;101509.19;105389;277;40267;-74
2023/05/04 07:17:24;;;;;;;7.50;5.70;;;;;;;28.46;17.48;101505.40;105520;277;173272;-74
2023/05/04 07:20:00;;;;;;;7.50;5.70;;;;;;;28.76;17.64;101509.17;105637;277;38531;-75
2023/05/04 07:22:38;;;;;;;7.80;5.10;;;;;;;29.12;17.40;101503.00;105973;277;39761;-75
2023/05/04 07:25:11;;;;;;;;;;;;;;;29.50;17.09;101505.50;105379;277;38773;-75
2023/05/04 07:27:47;;;;;;;4.90;2.40;;;;;;;29.61;15.82;101504.72;105577;277;39860;-75
2023/05/04 07:30:24;;;;;;;3.90;3.40;;;;;;;29.76;15.25;101506.40;105978;277;39928;-75
2023/05/04 07:33:01;;;;;;;3.30;3.00;;;;;;;29.93;15.68;101509.38;105968;277;39419;-77
2023/05/04 07:35:40;;;;;;;4.10;3.60;;;;;;;30.35;14.66;101512.32;105302;277;41406;-73
2023/05/04 07:38:17;;;;;;;5.00;4.30;;;;;;;30.30;14.88;101509.72;105637;277;39958;-73
2023/05/04 07:40:57;;;;;;;6.10;4.90;;;;;;;30.37;15.40;101509.91;105647;277;40214;-77
2023/05/04 07:43:36;;;;;;;3.30;2.40;;;;;;;30.18;14.79;101507.23;105954;277;38809;-78
2023/05/04 07:46:13;;;;;;;3.70;3.20;;;;;;;29.93;15.26;101499.52;105673;277;38420;-75
2023/05/04 07:48:53;;;;;;;3.90;3.00;;;;;;;30.20;15.30;101499.48;105672;277;38856;-75
2023/05/04 07:51:29;;;;;;;4.60;3.60;;;;;;;30.43;15.52;101495.27;105651;277;39447;-76
2023/05/04 07:54:07;;;;;;;3.40;3.00;;;;;;;30.73;15.35;101487.39;105397;277;38735;-77
2023/05/04 07:56:45;;;;;;;4.30;3.80;;;;;;;30.98;15.57;101490.69;105640;277;38245;-76
2023/05/04 07:59:24;;;;;;;6.90;4.40;;;;;;;31.20;14.77;101486.00;105643;277;39618;-76
2023/05/04 08:02:04;;;;;;;2.50;1.80;;;;;;;31.35;14.85;101489.79;105631;277;39117;-75
2023/05/04 08:04:38;;;;;;;2.50;1.90;;;;;;;31.67;13.89;101488.82;105401;277;39594;-76
2023/05/04 08:07:15;;;;;;;2.70;2.00;;;;;;;31.82;13.66;101491.83;104735;279;887626;-76
2023/05/04 08:09:54;;;;;;;6.00;1.90;;;;;;;30.64;13.31;101489.22;105371;279;38618;-75
2023/05/04 08:12:29;;;;;;;2.00;1.80;;;;;;;29.18;14.95;101489.35;105661;277;38742;-76
2023/05/04 08:15:05;;;;;;;2.70;2.40;;;;;;;27.98;15.15;101496.48;105488;277;170891;-76
2023/05/04 08:17:41;;;;;;;2.00;1.70;;;;;;;26.96;15.43;101496.85;105986;277;38495;-76
2023/05/04 08:20:20;;;;;;;1.90;1.10;;;;;;;26.03;15.68;101497.81;105528;277;173581;-75
2023/05/04 08:22:59;;;;;;;1.90;1.40;;;;;;;25.26;16.12;101502.11;106029;277;39454;-75
2023/05/04 08:25:34;;;;;;;2.00;1.20;;;;;;;24.68;16.88;101496.55;105658;277;38534;-75
2023/05/04 08:28:10;;;;;;;2.30;1.40;;;;;;;24.99;17.16;101503.39;105430;277;38349;-75
2023/05/04 08:30:45;;;;;;;4.60;1.90;;;;;;;25.61;16.65;101502.58;105619;277;38197;-74
2023/05/04 08:33:20;;;;;;;4.30;2.50;;;;;;;26.61;16.79;101495.29;106008;277;38235;-74
2023/05/04 08:35:57;;;;;;;4.50;2.40;;;;;;;27.53;17.09;101492.20;106009;277;38870;-74
2023/05/04 08:38:35;;;;;;;4.60;2.90;;;;;;;28.35;16.14;101492.15;105653;277;38265;-74
2023/05/04 08:41:11;;;;;;;4.60;2.80;;;;;;;29.20;15.91;101498.60;105616;277;38739;-76
2023/05/04 08:43:49;;;;;;;3.90;2.30;;;;;;;29.97;15.24;101499.95;105603;277;38625;-76
2023/05/04 08:46:29;;;;;;;3.40;2.40;;;;;;;30.33;14.17;101494.35;105628;277;38951;-76
2023/05/04 08:49:04;;;;;;;4.30;2.30;;;;;;;30.33;14.63;101494.66;106017;277;38843;-76
2023/05/04 08:51:42;;;;;;;3.30;2.40;;;;;;;30.47;14.47;101494.45;104993;277;887328;-75
2023/05/04 08:54:17;;;;;;;3.90;2.60;;;;;;;30.67;14.36;101486.79;105953;277;173184;-75
2023/05/04 08:56:53;;;;;;;3.10;2.70;;;;;;;31.03;15.45;101488.36;105612;277;38757;-76
2023/05/04 08:59:32;;;;;;;4.10;2.60;;;;;;;31.59;15.03;101481.63;105635;277;38704;-77
2023/05/04 09:02:09;;;;;;;4.80;2.90;;;;;;;31.84;14.64;101483.14;105661;277;38413;-76
2023/05/04 09:04:48;;;;;;;3.60;2.80;;;;;;;32.08;14.53;101485.79;105404;279;38267;-75
2023/05/04 09:07:26;;;;;;;3.10;2.40;;;;;;;32.48;14.43;101486.86;105613;277;39380;-75
2023/05/04 09:10:00;;;;;;;4.10;2.40;;;;;;;32.82;13.31;101489.90;105610;277;39859;-75
2023/05/04 09:12:37;;;;;;;2.90;1.90;;;;;;;32.85;13.50;101484.30;106054;277;38302;-75
2023/05/04 09:15:22;;;;;;;2.20;2.00;;;;;;;32.96;12.89;101485.28;105608;277;39844;-75
2023/05/04 09:18:05;;;;;;;3.30;2.30;;;;;;;32.80;12.41;101475.58;105621;277;38274;-74
2023/05/04 09:20:49;;;;;;;3.30;2.30;;;;;;;32.26;12.87;101476.88;105638;277;38434;-74
2023/05/04 09:23:26;;;;;;;2.90;2.20;;;;;;;31.59;13.84;101481.25;105616;277;38795;-74
2023/05/04 09:26:03;;;;;;;2.80;2.30;;;;;;;31.21;14.03;101478.85;105636;277;38940;-74
2023/05/04 09:28:42;;;;;;;2.60;2.10;;;;;;;30.62;14.00;101473.42;106041;277;38425;-74
2023/05/04 09:31:20;;;;;;;3.20;2.20;;;;;;;30.05;14.85;101475.62;106013;277;38692;-75
2023/05/04 09:33:55;;;;;;;3.50;2.10;;;;;;;29.61;14.80;101476.83;105600;277;38433;-75
2023/05/04 09:36:32;;;;;;;2.40;2.10;;;;;;;29.15;14.92;101476.63;104449;278;1323665;-75
2023/05/04 09:39:15;;;;;;;4.10;2.30;;;;;;;28.74;14.86;101472.55;105556;277;39073;-75
2023/05/04 09:41:52;;;;;;;3.70;2.50;;;;;;;28.37;14.90;101469.98;106056;277;39177;-76
2023/05/04 09:44:28;;;;;;;3.80;2.20;;;;;;;27.98;15.10;101474.06;105633;277;39222;-75
2023/05/04 09:47:02;;;;;;;4.60;2.40;;;;;;;27.56;15.06;101469.39;105624;277;38783;-74
2023/05/04 09:49:39;;;;;;;3.70;2.60;;;;;;;26.99;15.60;101468.09;105648;277;38273;-75
2023/05/04 09:52:14;;;;;;;4.40;2.30;;;;;;;26.68;15.72;101458.27;105646;277;39571;-75
2023/05/04 09:54:51;;;;;;;3.20;2.40;;;;;;;26.63;16.03;101455.95;105379;277;38246;-75
2023/05/04 09:57:28;;;;;;;5.20;2.60;;;;;;;26.57;16.29;101459.11;105595;277;39534;-75
2023/05/04 10:00:04;;;;;;;3.20;2.70;;;;;;;26.35;15.72;101458.01;105628;277;38224;-76
2023/05/04 10:02:43;;;;;;;3.40;2.20;;;;;;;26.00;16.17;101458.59;105646;277;38238;-76
2023/05/04 10:05:22;;;;;;;2.80;2.60;;;;;;;25.70;16.56;101454.42;105607;277;38377;-74
2023/05/04 10:08:00;;;;;;;4.60;2.20;;;;;;;25.15;17.27;101461.70;105611;277;39399;-74
2023/05/04 10:10:35;;;;;;;4.90;2.10;;;;;;;24.74;17.23;101452.55;106059;277;38473;-74
2023/05/04 10:13:13;;;;;;;2.50;2.00;;;;;;;24.14;17.76;101448.72;105562;277;39703;-74
2023/05/04 10:15:55;;;;;;;3.10;2.20;;;;;;;24.07;19.12;101445.21;105590;277;38363;-75
2023/05/04 10:18:39;;;;;;;5.50;2.90;;;;;;;24.13;19.16;101448.58;105346;277;38218;-75
2023/05/04 10:21:29;;;;;;;4.70;2.40;;;;;;;23.79;18.92;101449.31;105568;277;38265;-75
2023/05/04 10:25:04;;;;;;;3.10;2.60;;;;;;;23.21;19.38;101446.67;106040;277;38242;-75
2023/05/04 10:28:00;;;;;;;3.40;2.80;;;;;;;22.52;19.91;101448.46;105468;277;171188;-74
2023/05/04 10:30:38;;;;;;;4.10;3.00;;;;;;;22.13;21.16;101441.93;105395;279;39653;-75
2023/05/04 10:33:14;;;;;;;3.90;2.50;;;;;;;21.92;21.57;101436.45;105534;277;38256;-75
2023/05/04 10:36:00;;;;;;;4.10;2.60;;;;;;;21.90;22.15;101436.05;106067;277;38431;-75
2023/05/04 10:38:40;;;;;;;4.40;2.40;;;;;;;21.95;22.33;101436.81;106020;277;39268;-75
2023/05/04 10:41:23;;;;;;;6.00;2.50;;;;;;;21.89;23.00;101434.02;105390;277;39092;-74
2023/05/04 10:44:08;;;;;;;4.70;2.80;;;;;;;21.74;23.01;101431.66;105542;277;39341;-74
2023/05/04 10:46:44;;;;;;;2.50;2.00;;;;;;;21.78;22.78;101428.22;105562;277;38399;-74
2023/05/04 10:49:27;;;;;;;5.20;2.50;;;;;;;21.95;22.77;101427.04;105541;277;39250;-74
2023/05/04 10:52:16;;;;;;;3.00;2.60;;;;;;;22.01;21.92;101424.50;105357;267;38984;-75
2023/05/04 10:55:02;;;;;;;4.00;2.70;;;;;;;21.91;22.34;101427.67;105620;277;38726;-74
2023/05/04 10:57:49;;;;;;;3.00;2.20;;;;;;;21.83;22.06;101424.16;105601;277;38372;-74
2023/05/04 11:00:24;;;;;;;5.20;2.70;;;;;;;21.41;22.00;101424.31;105975;277;38813;-74
2023/05/04 11:03:06;;;;;;;4.90;2.30;;;;;;;21.03;22.04;101422.83;105604;277;38483;-74
2023/05/04 11:05:49;;;;;;;2.90;2.10;;;;;;;21.05;22.29;101421.52;105318;276;39158;-75
2023/05/04 11:08:26;;;;;;;4.50;2.10;;;;;;;21.01;22.54;101421.77;105997;277;39651;-75
2023/05/04 11:11:06;;;;;;;4.00;2.40;;;;;;;20.98;22.48;101415.23;105291;277;41710;-75
2023/05/04 11:13:46;;;;;;;4.50;1.90;;;;;;;21.08;22.55;101414.23;105608;277;39435;-75
2023/05/04 11:16:27;;;;;;;5.10;2.40;;;;;;;21.20;22.70;101407.76;105964;277;38771;-74
2023/05/04 11:19:11;;;;;;;2.90;2.30;;;;;;;21.30;22.75;101404.42;105656;277;38349;-74
2023/05/04 11:21:46;;;;;;;3.70;2.90;;;;;;;21.37;23.44;101398.79;105653;277;39672;-73
2023/05/04 11:24:22;;;;;;;4.80;2.50;;;;;;;21.48;22.67;101391.55;106019;277;39665;-73
2023/05/04 11:27:00;;;;;;;4.10;2.50;;;;;;;21.51;21.97;101389.57;105640;277;38550;-74
2023/05/04 11:29:37;;;;;;;4.50;2.80;;;;;;;21.47;21.53;101387.73;105650;277;40318;-74
2023/05/04 11:32:13;;;;;;;3.20;2.40;;;;;;;21.39;21.80;101383.46;105641;277;39352;-75
2023/05/04 11:34:50;;;;;;;4.10;2.50;;;;;;;21.26;22.15;101378.61;105606;277;38697;-75
2023/05/04 11:37:29;;;;;;;3.30;2.30;;;;;;;21.25;22.15;101375.82;105619;277;39641;-75
2023/05/04 11:40:15;;;;;;;3.00;2.30;;;;;;;21.04;21.98;101374.05;105666;277;38520;-74
2023/05/04 11:42:49;;;;;;;3.30;2.60;;;;;;;20.67;22.34;101376.61;106015;277;38514;-75
2023/05/04 11:45:31;;;;;;;3.90;2.50;;;;;;;20.42;22.25;101377.98;106022;277;38379;-75
2023/05/04 11:48:07;;;;;;;5.30;2.90;;;;;;;20.04;21.67;101370.80;105646;277;38844;-75
2023/05/04 11:50:42;;;;;;;4.80;2.70;;;;;;;19.77;22.96;101371.05;106029;277;39680;-73
2023/05/04 11:53:22;;;;;;;4.20;2.70;;;;;;;19.59;22.28;101367.91;105643;277;38248;-73
2023/05/04 11:56:04;;;;;;;3.50;2.30;;;;;;;19.26;22.53;101365.73;105620;277;39514;-73
2023/05/04 11:58:39;;;;;;;5.20;2.70;;;;;;;19.14;22.76;101368.22;105642;277;39955;-73
2023/05/04 12:01:14;;;;;;;3.20;2.90;;;;;;;19.19;22.89;101364.77;105656;277;39607;-74
2023/05/04 12:03:49;;;;;;;5.90;2.60;;;;;;;19.26;22.91;101363.10;106072;277;38819;-75
2023/05/04 12:06:36;;;;;;;5.30;2.60;;;;;;;19.28;22.77;101359.43;105417;279;38623;-73
2023/05/04 12:09:11;;;;;;;5.00;2.40;;;;;;;19.29;22.64;101355.79;105647;277;39601;-73
2023/05/04 12:11:57;;;;;;;3.80;2.80;;;;;;;19.35;23.06;101356.71;105662;277;38228;-76